createdAt,value
2023-01-27T00:09:09.144Z,10
2023-01-27T00:19:14.717Z,9
2023-01-27T00:29:20.752Z,9
2023-01-27T00:39:26.008Z,9
2023-01-27T00:49:29.860Z,9
2023-01-27T00:59:36.925Z,8
2023-01-27T01:09:43.254Z,9
2023-01-27T01:19:47.395Z,7
2023-01-27T01:29:51.815Z,9
2023-01-27T01:39:59.867Z,8
2023-01-27T01:50:07.136Z,7
2023-01-27T02:00:15.470Z,7
2023-01-27T02:10:20.475Z,8
2023-01-27T02:20:25.582Z,8
2023-01-27T02:30:30.927Z,7
2023-01-27T02:40:37.226Z,7
2023-01-27T02:50:41.903Z,8
2023-01-27T03:00:47.976Z,8
2023-01-27T03:10:53.711Z,9
2023-01-27T03:20:59.652Z,8
2023-01-27T03:31:07.189Z,7
2023-01-27T03:41:12.944Z,8
2023-01-27T03:51:20.056Z,8
2023-01-27T04:01:24.747Z,9
2023-01-27T04:11:32.384Z,8
2023-01-27T04:21:34.808Z,7
2023-01-27T04:31:40.994Z,10
2023-01-27T04:41:47.445Z,8
2023-01-27T04:51:51.532Z,8
2023-01-27T05:01:59.270Z,7
2023-01-27T05:12:05.923Z,9
2023-01-27T05:22:10.370Z,8
2023-01-27T05:32:16.909Z,8
2023-01-27T05:42:21.736Z,8
2023-01-27T05:52:27.058Z,8
2023-01-27T06:02:34.484Z,8
2023-01-27T06:12:42.679Z,10
2023-01-27T06:22:47.928Z,12
2023-01-27T06:32:54.402Z,17
2023-01-27T06:43:00.692Z,19
2023-01-27T06:53:05.901Z,19
2023-01-27T07:03:11.489Z,20
2023-01-27T07:13:16.204Z,14
2023-01-27T07:23:20.121Z,18
2023-01-27T07:33:25.411Z,19
2023-01-27T07:43:31.645Z,16
2023-01-27T07:53:37.188Z,18
2023-01-27T08:03:43.349Z,15
2023-01-27T08:13:49.433Z,20
2023-01-27T08:23:53.958Z,14
2023-01-27T08:33:58.884Z,16
2023-01-27T08:44:06.364Z,16
2023-01-27T08:54:11.266Z,13
2023-01-27T09:04:15.726Z,16
2023-01-27T09:14:22.285Z,13
2023-01-27T09:24:26.015Z,20
2023-01-27T09:34:32.515Z,13
2023-01-27T09:44:36.854Z,12
2023-01-27T09:54:41.561Z,13
2023-01-27T10:04:48.406Z,14
2023-01-27T10:14:54.386Z,13
2023-01-27T10:25:00.475Z,14
2023-01-27T10:35:06.316Z,12
2023-01-27T10:45:11.825Z,12
2023-01-27T10:55:17.943Z,19
2023-01-27T11:05:25.391Z,12
2023-01-27T11:15:30.574Z,11
2023-01-27T11:25:36.013Z,20
2023-01-27T11:35:42.621Z,12
2023-01-27T11:45:46.983Z,13
2023-01-27T11:55:53.760Z,14
2023-01-27T12:05:59.557Z,14
2023-01-27T12:16:06.158Z,14
2023-01-27T12:26:10.490Z,14
2023-01-27T12:36:18.705Z,15
2023-01-27T12:46:24.862Z,12
2023-01-27T12:56:30.515Z,19
2023-01-27T13:06:37.642Z,17
2023-01-27T13:16:43.256Z,17
2023-01-27T13:26:49.216Z,16
2023-01-27T13:36:55.454Z,20
2023-01-27T13:47:05.224Z,12
2023-01-27T13:57:09.921Z,12
2023-01-27T14:07:16.756Z,11
2023-01-27T14:17:22.515Z,11
2023-01-27T14:27:27.448Z,12
2023-01-27T14:37:32.647Z,14
2023-01-27T14:47:39.800Z,15
2023-01-27T14:57:43.676Z,18
2023-01-27T15:07:49.155Z,15
2023-01-27T15:17:53.519Z,18
2023-01-27T15:27:59.497Z,19
2023-01-27T15:38:05.182Z,18
2023-01-27T15:48:11.288Z,18
2023-01-27T15:58:18.252Z,17
2023-01-27T16:08:22.860Z,18
2023-01-27T16:18:28.628Z,19
2023-01-27T16:28:35.753Z,22
2023-01-27T16:38:41.638Z,23
2023-01-27T16:48:47.635Z,21
2023-01-27T16:58:56.874Z,21
2023-01-27T17:08:57.998Z,23
2023-01-27T17:19:21.978Z,24
2023-01-27T17:29:14.990Z,21
2023-01-27T17:39:20.271Z,25
2023-01-27T17:49:25.096Z,21
2023-01-27T17:59:30.787Z,20
2023-01-27T18:09:35.651Z,23
2023-01-27T18:19:41.250Z,28
2023-01-27T18:29:46.758Z,30
2023-01-27T18:39:54.170Z,27
2023-01-27T18:50:00.967Z,28
2023-01-27T19:00:07.016Z,24
2023-01-27T19:10:14.691Z,27
2023-01-27T19:20:18.705Z,27
2023-01-27T19:30:23.451Z,27
2023-01-27T19:40:30.071Z,25
2023-01-27T19:50:36.427Z,29
2023-01-27T20:00:40.280Z,27
2023-01-27T20:10:47.923Z,27
2023-01-27T20:20:53.414Z,22
2023-01-27T20:30:57.676Z,24
2023-01-27T20:41:02.909Z,28
2023-01-27T20:51:08.330Z,22
2023-01-27T21:01:12.742Z,27
2023-01-27T21:11:17.245Z,25
2023-01-27T21:21:22.916Z,29
2023-01-27T21:31:29.493Z,25
2023-01-27T21:41:33.910Z,24
2023-01-27T21:51:38.710Z,24
2023-01-27T22:01:43.424Z,27
2023-01-27T22:11:48.899Z,25
2023-01-27T22:21:55.191Z,24
2023-01-27T22:31:58.777Z,24
2023-01-27T22:42:03.656Z,25
2023-01-27T22:52:09.924Z,27
2023-01-27T23:02:15.685Z,22
2023-01-27T23:12:20.201Z,23
2023-01-27T23:22:24.990Z,23
2023-01-27T23:32:31.675Z,19
2023-01-27T23:42:38.440Z,22
2023-01-27T23:52:44.968Z,20
